createdAt,value
2022-12-03T00:00:39.572Z,8.20
2022-12-03T00:03:06.959Z,8.20
2022-12-03T00:05:34.298Z,8.10
2022-12-03T00:08:01.527Z,8.00
2022-12-03T00:10:28.743Z,8.00
2022-12-03T00:12:55.900Z,8.00
2022-12-03T00:15:23.165Z,8.00
2022-12-03T00:17:50.516Z,8.00
2022-12-03T00:20:19.695Z,7.90
2022-12-03T00:22:46.930Z,7.90
2022-12-03T00:25:14.155Z,7.90
2022-12-03T00:27:41.324Z,7.90
2022-12-03T00:30:09.259Z,7.90
2022-12-03T00:32:36.614Z,7.80
2022-12-03T00:35:03.848Z,7.80
2022-12-03T00:37:31.248Z,7.80
2022-12-03T00:39:58.405Z,7.80
2022-12-03T00:42:25.579Z,7.80
2022-12-03T00:44:53.106Z,7.70
2022-12-03T00:47:20.513Z,7.70
2022-12-03T00:49:47.670Z,7.70
2022-12-03T00:52:14.837Z,7.70
2022-12-03T00:54:41.992Z,7.80
2022-12-03T00:57:09.154Z,7.70
2022-12-03T00:59:36.358Z,7.80
2022-12-03T01:02:03.671Z,7.70
2022-12-03T01:04:31.061Z,7.70
2022-12-03T01:06:59.208Z,7.70
2022-12-03T01:09:26.769Z,7.70
2022-12-03T01:11:53.981Z,7.70
2022-12-03T01:14:21.223Z,7.80
2022-12-03T01:16:48.633Z,7.80
2022-12-03T01:19:16.404Z,7.80
2022-12-03T01:21:48.433Z,7.80
2022-12-03T01:24:15.918Z,7.90
2022-12-03T01:26:43.121Z,7.90
2022-12-03T01:29:10.301Z,7.90
2022-12-03T01:31:56.244Z,8.00
2022-12-03T01:34:23.468Z,7.90
2022-12-03T01:36:52.450Z,7.80
2022-12-03T01:39:19.983Z,7.80
2022-12-03T01:41:48.673Z,7.80
2022-12-03T01:44:18.168Z,7.70
2022-12-03T01:46:46.180Z,7.70
2022-12-03T01:49:15.147Z,7.80
2022-12-03T01:51:42.324Z,7.80
2022-12-03T01:54:14.227Z,7.90
2022-12-03T01:56:41.396Z,7.90
2022-12-03T01:59:09.535Z,7.90
2022-12-03T02:01:36.715Z,7.80
2022-12-03T02:04:05.016Z,7.90
2022-12-03T02:06:32.232Z,7.90
2022-12-03T02:09:00.260Z,7.80
2022-12-03T02:11:33.251Z,7.80
2022-12-03T02:14:02.064Z,7.80
2022-12-03T02:16:29.716Z,7.80
2022-12-03T02:18:58.047Z,7.80
2022-12-03T02:21:32.946Z,7.70
2022-12-03T02:24:00.103Z,7.70
2022-12-03T02:26:27.996Z,7.80
2022-12-03T02:28:55.303Z,7.80
2022-12-03T02:31:22.808Z,7.80
2022-12-03T02:33:50.099Z,7.90
2022-12-03T02:36:17.317Z,7.90
2022-12-03T02:38:44.888Z,7.80
2022-12-03T02:41:33.530Z,7.90
2022-12-03T02:44:00.741Z,7.90
2022-12-03T02:46:28.025Z,7.80
2022-12-03T02:48:55.592Z,7.80
2022-12-03T02:51:22.884Z,7.80
2022-12-03T02:53:50.780Z,7.70
2022-12-03T02:56:20.847Z,7.80
2022-12-03T02:58:49.440Z,7.70
2022-12-03T03:01:17.157Z,7.70
2022-12-03T03:03:45.470Z,7.80
2022-12-03T03:06:12.717Z,7.80
2022-12-03T03:08:40.276Z,7.70
2022-12-03T03:11:07.841Z,7.70
2022-12-03T03:13:35.497Z,7.70
2022-12-03T03:16:04.585Z,7.60
2022-12-03T03:18:32.404Z,7.70
2022-12-03T03:20:59.691Z,7.60
2022-12-03T03:23:26.957Z,7.60
2022-12-03T03:26:06.216Z,7.60
2022-12-03T03:28:35.338Z,7.70
2022-12-03T03:31:03.934Z,7.70
2022-12-03T03:33:31.408Z,7.70
2022-12-03T03:36:00.459Z,7.70
2022-12-03T03:38:28.504Z,7.70
2022-12-03T03:40:56.403Z,7.80
2022-12-03T03:43:24.239Z,7.80
2022-12-03T03:45:52.406Z,7.80
2022-12-03T03:48:19.955Z,7.80
2022-12-03T03:50:47.230Z,7.80
2022-12-03T03:53:15.089Z,7.90
2022-12-03T03:55:42.485Z,7.90
2022-12-03T03:58:09.744Z,8.00
2022-12-03T04:00:37.118Z,8.00
2022-12-03T04:03:05.009Z,8.00
2022-12-03T04:05:32.227Z,8.00
2022-12-03T04:07:59.502Z,8.00
2022-12-03T04:10:45.616Z,7.90
2022-12-03T04:13:12.775Z,8.00
2022-12-03T04:15:39.964Z,8.00
2022-12-03T04:18:36.097Z,8.00
2022-12-03T04:21:21.724Z,8.00
2022-12-03T04:23:48.968Z,8.10
2022-12-03T04:26:34.611Z,8.20
2022-12-03T04:29:01.749Z,8.20
2022-12-03T04:31:47.994Z,8.30
2022-12-03T04:34:33.865Z,8.40
2022-12-03T04:37:01.123Z,8.40
2022-12-03T04:39:28.464Z,8.40
2022-12-03T04:41:55.659Z,8.40
2022-12-03T04:44:38.180Z,8.30
2022-12-03T04:47:05.371Z,8.10
2022-12-03T04:49:33.254Z,8.10
2022-12-03T04:52:00.462Z,8.10
2022-12-03T04:54:27.836Z,8.10
2022-12-03T04:56:54.996Z,8.10
2022-12-03T04:59:22.152Z,8.00
2022-12-03T05:01:49.377Z,8.00
2022-12-03T05:04:16.938Z,8.00
2022-12-03T05:06:44.820Z,8.00
2022-12-03T05:09:12.295Z,8.00
2022-12-03T05:11:39.597Z,8.00
2022-12-03T05:14:07.151Z,8.10
2022-12-03T05:16:34.416Z,8.10
2022-12-03T05:19:02.048Z,8.20
2022-12-03T05:21:29.279Z,8.20
2022-12-03T05:23:56.634Z,8.20
2022-12-03T05:26:23.831Z,8.20
2022-12-03T05:28:51.007Z,8.30
2022-12-03T05:31:18.305Z,8.20
2022-12-03T05:33:45.574Z,8.20
2022-12-03T05:36:12.740Z,8.20
2022-12-03T05:38:39.945Z,8.20
2022-12-03T05:41:27.076Z,8.30
2022-12-03T05:43:54.385Z,8.30
2022-12-03T05:46:21.588Z,8.30
2022-12-03T05:48:48.851Z,8.30
2022-12-03T05:51:16.054Z,8.30
2022-12-03T05:53:43.290Z,8.30
2022-12-03T05:56:10.468Z,8.30
2022-12-03T05:58:37.719Z,8.30
2022-12-03T06:01:04.904Z,8.20
2022-12-03T06:03:32.262Z,8.20
2022-12-03T06:05:59.576Z,8.10
2022-12-03T06:08:26.751Z,8.10
2022-12-03T06:10:53.936Z,8.00
2022-12-03T06:13:21.107Z,8.00
2022-12-03T06:15:48.378Z,8.00
2022-12-03T06:18:15.719Z,8.00
2022-12-03T06:20:42.940Z,8.00
2022-12-03T06:23:10.207Z,8.00
2022-12-03T06:25:37.430Z,7.90
2022-12-03T06:28:04.712Z,7.90
2022-12-03T06:30:31.992Z,7.90
2022-12-03T06:32:59.172Z,7.90
2022-12-03T06:35:26.329Z,7.90
2022-12-03T06:37:53.536Z,7.90
2022-12-03T06:40:20.771Z,7.90
2022-12-03T06:42:47.987Z,7.80
2022-12-03T06:45:15.232Z,7.90
2022-12-03T06:47:42.450Z,7.90
2022-12-03T06:50:09.707Z,7.90
2022-12-03T06:52:36.885Z,7.90
2022-12-03T06:55:04.216Z,7.90
2022-12-03T06:57:31.374Z,7.90
2022-12-03T06:59:58.601Z,7.90
2022-12-03T07:02:25.872Z,8.00
2022-12-03T07:04:53.201Z,8.10
2022-12-03T07:07:20.497Z,8.10
2022-12-03T07:09:47.688Z,8.10
2022-12-03T07:12:14.859Z,8.20
2022-12-03T07:14:43.567Z,8.20
2022-12-03T07:17:10.827Z,8.20
2022-12-03T07:19:38.047Z,8.30
2022-12-03T07:22:05.225Z,8.30
2022-12-03T07:24:32.598Z,8.40
2022-12-03T07:26:59.772Z,8.40
2022-12-03T07:29:27.041Z,8.50
2022-12-03T07:31:54.334Z,8.50
2022-12-03T07:34:21.664Z,8.50
2022-12-03T07:36:48.877Z,8.50
2022-12-03T07:39:16.197Z,8.60
2022-12-03T07:41:43.412Z,8.70
2022-12-03T07:44:14.177Z,8.60
2022-12-03T07:46:42.660Z,8.60
2022-12-03T07:49:09.959Z,8.70
2022-12-03T07:51:37.229Z,8.70
2022-12-03T07:54:04.671Z,8.80
2022-12-03T07:56:31.865Z,8.80
2022-12-03T07:58:59.047Z,8.80
2022-12-03T08:01:26.364Z,8.80
2022-12-03T08:03:53.680Z,8.90
2022-12-03T08:06:20.833Z,8.90
2022-12-03T08:08:48.046Z,9.00
2022-12-03T08:11:15.230Z,9.10
2022-12-03T08:13:42.756Z,9.10
2022-12-03T08:16:18.103Z,9.10
2022-12-03T08:18:46.538Z,9.10
2022-12-03T08:21:15.443Z,9.20
2022-12-03T08:23:42.730Z,9.20
2022-12-03T08:26:17.118Z,9.20
2022-12-03T08:28:44.320Z,9.30
2022-12-03T08:31:20.717Z,9.30
2022-12-03T08:33:48.937Z,9.30
2022-12-03T08:36:18.834Z,9.40
2022-12-03T08:38:48.741Z,9.50
2022-12-03T08:41:16.117Z,9.60
2022-12-03T08:43:43.953Z,9.60
2022-12-03T08:46:12.573Z,9.60
2022-12-03T08:48:44.021Z,9.70
2022-12-03T08:51:17.498Z,9.80
2022-12-03T08:53:47.293Z,9.80
2022-12-03T08:56:28.016Z,9.80
2022-12-03T08:58:59.103Z,9.90
2022-12-03T09:01:28.802Z,9.90
2022-12-03T09:03:58.706Z,9.90
2022-12-03T09:06:26.214Z,10.00
2022-12-03T09:08:53.452Z,10.10
2022-12-03T09:11:20.646Z,10.10
2022-12-03T09:13:47.871Z,10.10
2022-12-03T09:16:15.088Z,10.10
2022-12-03T09:18:42.681Z,10.20
2022-12-03T09:21:09.838Z,10.20
2022-12-03T09:23:36.987Z,10.20
2022-12-03T09:26:04.171Z,10.20
2022-12-03T09:28:31.360Z,10.20
2022-12-03T09:30:59.449Z,10.20
2022-12-03T09:33:26.613Z,10.10
2022-12-03T09:35:53.824Z,10.10
2022-12-03T09:38:20.988Z,10.10
2022-12-03T09:40:48.160Z,10.20
2022-12-03T09:43:15.581Z,10.20
2022-12-03T09:45:45.205Z,10.20
2022-12-03T09:48:13.460Z,10.20
2022-12-03T09:50:41.807Z,10.30
2022-12-03T09:53:10.655Z,10.30
2022-12-03T09:55:45.962Z,10.30
2022-12-03T09:58:14.435Z,10.40
2022-12-03T10:00:42.656Z,10.40
2022-12-03T10:03:11.375Z,10.40
2022-12-03T10:05:40.573Z,10.40
2022-12-03T10:08:12.090Z,10.40
2022-12-03T10:10:40.403Z,10.40
2022-12-03T10:13:10.855Z,10.30
2022-12-03T10:15:38.207Z,10.20
2022-12-03T10:18:34.495Z,10.10
2022-12-03T10:21:04.125Z,10.20
2022-12-03T10:23:31.385Z,10.30
2022-12-03T10:25:59.895Z,10.40
2022-12-03T10:28:28.892Z,10.50
2022-12-03T10:30:56.479Z,10.60
2022-12-03T10:33:28.891Z,10.70
2022-12-03T10:35:56.099Z,10.80
2022-12-03T10:38:23.464Z,11.00
2022-12-03T10:40:50.790Z,11.10
2022-12-03T10:43:17.945Z,11.30
2022-12-03T10:46:05.414Z,11.50
2022-12-03T10:48:32.662Z,11.60
2022-12-03T10:50:59.779Z,11.70
2022-12-03T10:53:28.862Z,11.70
2022-12-03T10:55:59.680Z,11.60
2022-12-03T10:58:28.027Z,11.50
2022-12-03T11:00:56.897Z,11.40
2022-12-03T11:03:28.198Z,11.30
2022-12-03T11:05:56.178Z,11.10
2022-12-03T11:08:24.864Z,10.90
2022-12-03T11:10:57.963Z,10.80
2022-12-03T11:13:48.462Z,10.70
2022-12-03T11:16:35.580Z,10.60
2022-12-03T11:19:03.133Z,10.60
2022-12-03T11:21:30.638Z,10.70
2022-12-03T11:24:00.860Z,10.70
2022-12-03T11:26:27.979Z,10.80
2022-12-03T11:28:56.135Z,10.80
2022-12-03T11:31:33.202Z,10.90
2022-12-03T11:34:18.661Z,11.00
2022-12-03T11:37:12.097Z,11.10
2022-12-03T11:39:45.426Z,11.20
2022-12-03T11:42:25.951Z,11.30
2022-12-03T11:45:11.211Z,11.30
2022-12-03T11:47:41.169Z,11.40
2022-12-03T11:50:23.365Z,11.50
2022-12-03T11:53:08.664Z,11.60
2022-12-03T11:55:37.703Z,11.60
2022-12-03T11:58:06.230Z,11.60
2022-12-03T12:00:33.434Z,11.60
2022-12-03T12:03:02.656Z,11.60
2022-12-03T12:05:34.718Z,11.60
2022-12-03T12:08:02.705Z,11.60
2022-12-03T12:10:41.507Z,11.60
2022-12-03T12:13:26.977Z,11.60
2022-12-03T12:15:54.804Z,11.50
2022-12-03T12:18:40.086Z,11.50
2022-12-03T12:21:25.940Z,11.50
2022-12-03T12:23:53.145Z,11.50
2022-12-03T12:26:20.300Z,11.50
2022-12-03T12:28:47.503Z,11.40
2022-12-03T12:31:14.727Z,11.40
2022-12-03T12:33:41.940Z,11.20
2022-12-03T12:36:09.434Z,11.00
2022-12-03T12:38:36.652Z,10.70
2022-12-03T12:41:07.043Z,10.50
2022-12-03T12:43:35.972Z,10.40
2022-12-03T12:46:39.051Z,10.30
2022-12-03T12:49:00.050Z,10.30
2022-12-03T12:51:27.377Z,10.20
2022-12-03T12:53:54.792Z,10.10
2022-12-03T12:56:25.049Z,10.10
2022-12-03T12:58:52.482Z,10.10
2022-12-03T13:01:29.519Z,10.00
2022-12-03T13:03:57.390Z,10.00
2022-12-03T13:06:28.783Z,9.90
2022-12-03T13:08:57.037Z,9.90
2022-12-03T13:11:27.282Z,9.80
2022-12-03T13:13:54.492Z,9.90
2022-12-03T13:16:31.457Z,9.90
2022-12-03T13:18:59.346Z,10.00
2022-12-03T13:21:29.631Z,10.00
2022-12-03T13:23:57.299Z,10.00
2022-12-03T13:26:42.449Z,10.00
2022-12-03T13:29:16.504Z,10.00
2022-12-03T13:31:54.180Z,10.10
2022-12-03T13:34:22.960Z,10.10
2022-12-03T13:36:57.031Z,10.10
2022-12-03T13:39:28.020Z,10.10
2022-12-03T13:42:13.432Z,10.10
2022-12-03T13:44:47.999Z,10.20
2022-12-03T13:47:17.783Z,10.20
2022-12-03T13:49:55.602Z,10.20
2022-12-03T13:52:24.500Z,10.20
2022-12-03T13:54:52.849Z,10.20
2022-12-03T13:57:22.340Z,10.30
2022-12-03T13:59:49.580Z,10.30
2022-12-03T14:02:17.090Z,10.30
2022-12-03T14:04:44.351Z,10.30
2022-12-03T14:07:13.190Z,10.40
2022-12-03T14:09:42.206Z,10.40
2022-12-03T14:12:27.424Z,10.40
2022-12-03T14:14:54.614Z,10.40
2022-12-03T14:17:21.829Z,10.40
2022-12-03T14:19:49.061Z,10.40
2022-12-03T14:22:18.108Z,10.40
2022-12-03T14:24:45.431Z,10.40
2022-12-03T14:27:12.617Z,10.40
2022-12-03T14:29:39.819Z,10.40
2022-12-03T14:32:07.131Z,10.40
2022-12-03T14:34:34.352Z,10.40
2022-12-03T14:37:01.721Z,10.40
2022-12-03T14:39:28.900Z,10.50
2022-12-03T14:42:14.222Z,10.50
2022-12-03T14:44:41.416Z,10.50
2022-12-03T14:47:08.651Z,10.50
2022-12-03T14:49:36.037Z,10.50
2022-12-03T14:52:03.542Z,10.40
2022-12-03T14:54:30.856Z,10.30
2022-12-03T14:56:58.129Z,10.30
2022-12-03T14:59:27.841Z,10.30
2022-12-03T15:01:55.882Z,10.40
2022-12-03T15:04:23.324Z,10.40
2022-12-03T15:06:50.490Z,10.40
2022-12-03T15:09:20.455Z,10.40
2022-12-03T15:11:47.668Z,10.30
2022-12-03T15:14:15.125Z,10.30
2022-12-03T15:16:42.318Z,10.30
2022-12-03T15:19:14.580Z,10.30
2022-12-03T15:21:41.785Z,10.30
2022-12-03T15:24:10.354Z,10.30
2022-12-03T15:26:37.544Z,10.30
2022-12-03T15:29:04.714Z,10.40
2022-12-03T15:31:32.133Z,10.40
2022-12-03T15:33:59.403Z,10.40
2022-12-03T15:36:26.693Z,10.50
2022-12-03T15:38:53.838Z,10.50
2022-12-03T15:41:21.516Z,10.50
2022-12-03T15:43:49.339Z,10.60
2022-12-03T15:46:16.852Z,10.60
2022-12-03T15:48:44.125Z,10.60
2022-12-03T15:51:11.336Z,10.60
2022-12-03T15:53:38.853Z,10.60
2022-12-03T15:56:06.619Z,10.60
2022-12-03T15:58:34.156Z,10.60
2022-12-03T16:01:01.465Z,10.60
2022-12-03T16:03:28.864Z,10.60
2022-12-03T16:05:56.124Z,10.60
2022-12-03T16:08:23.493Z,10.50
2022-12-03T16:10:52.309Z,10.50
2022-12-03T16:13:19.460Z,10.50
2022-12-03T16:15:46.803Z,10.50
2022-12-03T16:18:14.046Z,10.50
2022-12-03T16:20:41.301Z,10.50
2022-12-03T16:23:08.591Z,10.40
2022-12-03T16:25:35.886Z,10.40
2022-12-03T16:28:03.121Z,10.40
2022-12-03T16:30:30.302Z,10.40
2022-12-03T16:32:57.554Z,10.30
2022-12-03T16:35:24.897Z,10.30
2022-12-03T16:37:52.091Z,10.20
2022-12-03T16:40:19.253Z,10.20
2022-12-03T16:42:46.567Z,10.20
2022-12-03T16:45:33.556Z,10.20
2022-12-03T16:48:01.581Z,10.10
2022-12-03T16:50:30.215Z,10.10
2022-12-03T16:52:57.984Z,10.00
2022-12-03T16:55:25.228Z,10.00
2022-12-03T16:57:52.434Z,9.90
2022-12-03T17:00:21.820Z,9.80
2022-12-03T17:02:49.082Z,9.70
2022-12-03T17:05:16.399Z,9.70
2022-12-03T17:07:43.661Z,9.60
2022-12-03T17:10:11.267Z,9.60
2022-12-03T17:13:08.364Z,9.50
2022-12-03T17:15:30.885Z,9.60
2022-12-03T17:17:58.149Z,9.50
2022-12-03T17:20:25.349Z,9.50
2022-12-03T17:22:52.530Z,9.50
2022-12-03T17:25:19.718Z,9.40
2022-12-03T17:27:46.896Z,9.40
2022-12-03T17:30:15.545Z,9.40
2022-12-03T17:32:43.049Z,9.40
2022-12-03T17:35:10.944Z,9.40
2022-12-03T17:37:39.976Z,9.40
2022-12-03T17:40:08.200Z,9.40
2022-12-03T17:42:35.463Z,9.40
2022-12-03T17:45:03.257Z,9.40
2022-12-03T17:47:30.442Z,9.50
2022-12-03T17:49:57.836Z,9.50
2022-12-03T17:52:25.024Z,9.50
2022-12-03T17:55:10.445Z,9.60
2022-12-03T17:57:39.308Z,9.60
2022-12-03T18:00:06.807Z,9.60
2022-12-03T18:02:39.247Z,9.70
2022-12-03T18:05:06.781Z,9.80
2022-12-03T18:07:34.077Z,9.80
2022-12-03T18:10:01.387Z,9.80
2022-12-03T18:12:28.570Z,9.80
2022-12-03T18:14:55.814Z,9.80
2022-12-03T18:17:24.151Z,9.90
2022-12-03T18:19:51.529Z,9.90
2022-12-03T18:22:18.905Z,10.00
2022-12-03T18:24:48.888Z,10.00
2022-12-03T18:27:19.882Z,10.00
2022-12-03T18:29:47.302Z,10.10
2022-12-03T18:32:27.764Z,10.10
2022-12-03T18:34:56.617Z,10.10
2022-12-03T18:37:26.201Z,10.10
2022-12-03T18:39:53.671Z,10.10
2022-12-03T18:42:23.148Z,10.10
2022-12-03T18:44:51.573Z,10.00
2022-12-03T18:47:23.566Z,10.00
2022-12-03T18:49:52.850Z,10.00
2022-12-03T18:52:21.597Z,10.00
2022-12-03T18:54:49.185Z,9.90
2022-12-03T18:57:16.544Z,9.90
2022-12-03T18:59:43.701Z,10.00
2022-12-03T19:02:22.162Z,10.00
2022-12-03T19:05:02.349Z,9.90
2022-12-03T19:07:29.555Z,9.90
2022-12-03T19:09:56.892Z,9.80
2022-12-03T19:12:24.217Z,9.80
2022-12-03T19:14:51.471Z,9.80
2022-12-03T19:17:18.659Z,9.80
2022-12-03T19:19:46.458Z,9.80
2022-12-03T19:22:13.634Z,9.90
2022-12-03T19:24:40.792Z,9.90
2022-12-03T19:27:07.980Z,10.10
2022-12-03T19:29:35.243Z,10.10
2022-12-03T19:32:02.486Z,10.10
2022-12-03T19:34:29.806Z,10.10
2022-12-03T19:36:56.972Z,10.20
2022-12-03T19:39:24.836Z,10.30
2022-12-03T19:41:52.827Z,10.30
2022-12-03T19:44:20.040Z,10.30
2022-12-03T19:46:48.887Z,10.40
2022-12-03T19:49:21.270Z,10.30
2022-12-03T19:51:48.537Z,10.40
2022-12-03T19:54:15.803Z,10.40
2022-12-03T19:56:43.130Z,10.30
2022-12-03T19:59:11.933Z,10.40
2022-12-03T20:01:40.862Z,10.40
2022-12-03T20:04:08.231Z,10.40
2022-12-03T20:06:37.854Z,10.30
2022-12-03T20:09:07.674Z,10.40
2022-12-03T20:11:34.948Z,10.30
2022-12-03T20:14:03.457Z,10.30
2022-12-03T20:16:30.679Z,10.20
2022-12-03T20:19:00.092Z,10.20
2022-12-03T20:21:28.791Z,10.20
2022-12-03T20:23:56.288Z,10.20
2022-12-03T20:26:23.862Z,10.20
2022-12-03T20:28:52.930Z,10.20
2022-12-03T20:31:21.337Z,10.10
2022-12-03T20:33:50.105Z,10.10
2022-12-03T20:36:18.527Z,10.10
2022-12-03T20:38:45.741Z,10.10
2022-12-03T20:41:17.268Z,10.10
2022-12-03T20:43:44.955Z,10.00
2022-12-03T20:46:19.590Z,10.00
2022-12-03T20:48:47.250Z,10.00
2022-12-03T20:51:16.458Z,9.90
2022-12-03T20:53:44.128Z,9.90
2022-12-03T20:56:15.886Z,9.90
2022-12-03T20:58:43.055Z,9.80
2022-12-03T21:01:15.356Z,9.90
2022-12-03T21:03:43.760Z,10.00
2022-12-03T21:06:11.304Z,10.00
2022-12-03T21:08:42.805Z,10.00
2022-12-03T21:11:18.312Z,10.00
2022-12-03T21:13:46.204Z,10.10
2022-12-03T21:16:14.992Z,10.10
2022-12-03T21:18:45.250Z,10.10
2022-12-03T21:21:13.488Z,10.10
2022-12-03T21:23:40.670Z,10.20
2022-12-03T21:26:09.727Z,10.20
2022-12-03T21:28:37.800Z,10.20
2022-12-03T21:31:06.509Z,10.20
2022-12-03T21:33:34.070Z,10.20
2022-12-03T21:36:01.436Z,10.20
2022-12-03T21:38:29.158Z,10.30
2022-12-03T21:40:56.717Z,10.30
2022-12-03T21:43:24.286Z,10.30
2022-12-03T21:45:51.887Z,10.30
2022-12-03T21:48:19.658Z,10.20
2022-12-03T21:50:46.869Z,10.20
2022-12-03T21:53:14.082Z,10.20
2022-12-03T21:55:41.415Z,10.20
2022-12-03T21:58:08.631Z,10.30
2022-12-03T22:00:35.868Z,10.30
2022-12-03T22:03:03.170Z,10.30
2022-12-03T22:05:30.457Z,10.40
2022-12-03T22:07:57.713Z,10.40
2022-12-03T22:10:24.952Z,10.40
2022-12-03T22:12:52.112Z,10.40
2022-12-03T22:15:19.751Z,10.40
2022-12-03T22:17:47.159Z,10.40
2022-12-03T22:20:14.373Z,10.40
2022-12-03T22:22:41.589Z,10.40
2022-12-03T22:25:08.881Z,10.40
2022-12-03T22:27:36.108Z,10.30
2022-12-03T22:30:03.685Z,10.40
2022-12-03T22:32:30.905Z,10.40
2022-12-03T22:34:58.063Z,10.40
2022-12-03T22:37:25.237Z,10.40
2022-12-03T22:39:52.770Z,10.40
2022-12-03T22:42:20.309Z,10.40
2022-12-03T22:44:47.510Z,10.40
2022-12-03T22:47:14.716Z,10.50
2022-12-03T22:49:41.922Z,10.50
2022-12-03T22:52:09.112Z,10.50
2022-12-03T22:54:36.293Z,10.50
2022-12-03T22:57:03.552Z,10.50
2022-12-03T22:59:30.753Z,10.50
2022-12-03T23:01:57.910Z,10.50
2022-12-03T23:04:25.134Z,10.50
2022-12-03T23:06:52.311Z,10.40
2022-12-03T23:09:19.492Z,10.50
2022-12-03T23:11:46.795Z,10.50
2022-12-03T23:14:14.172Z,10.50
2022-12-03T23:16:41.396Z,10.60
2022-12-03T23:19:08.620Z,10.60
2022-12-03T23:21:36.004Z,10.60
2022-12-03T23:24:05.809Z,10.60
2022-12-03T23:26:37.203Z,10.60
2022-12-03T23:29:05.681Z,10.50
2022-12-03T23:31:33.421Z,10.50
2022-12-03T23:34:00.933Z,10.50
2022-12-03T23:36:29.108Z,10.50
2022-12-03T23:38:56.472Z,10.50
2022-12-03T23:41:24.292Z,10.50
2022-12-03T23:43:51.846Z,10.50
2022-12-03T23:46:25.886Z,10.50
2022-12-03T23:48:53.180Z,10.50
2022-12-03T23:51:27.037Z,10.50
2022-12-03T23:53:54.406Z,10.60
2022-12-03T23:56:23.278Z,10.60
2022-12-03T23:58:50.792Z,10.60
